Time;durP1;ratioP1;P1;durP2;ratioP2;P2;SDS_P1;SDS_P2;PMS_P1;PMS_P2;Temp;Humidity;BMP_temperature;BMP_pressure;BME280_temperature;BME280_humidity;BME280_pressure;Samples;Min_cycle;Max_cycle;Signal;HPM_P1;HPM_P2
2023/12/08 00:01:19;;;;;;;0.20;0.20;;;;;;;4.61;76.39;101630.44;5069805;28;20115;-87
2023/12/08 00:03:44;;;;;;;0.20;0.20;;;;;;;4.69;76.63;101621.84;5069670;28;20129;-88
2023/12/08 00:06:10;;;;;;;0.20;0.20;;;;;;;4.85;76.40;101629.41;5086265;28;20033;-90
2023/12/08 00:08:37;;;;;;;0.10;0.10;;;;;;;4.85;76.92;101637.09;5069787;28;20025;-89
2023/12/08 00:11:03;;;;;;;0.20;0.20;;;;;;;4.84;75.90;101642.25;5053195;28;20040;-89
2023/12/08 00:13:29;;;;;;;0.20;0.20;;;;;;;4.71;76.28;101633.78;5069720;28;20036;-87
2023/12/08 00:15:54;;;;;;;0.20;0.20;;;;;;;4.65;76.27;101633.84;5052697;28;20056;-88
2023/12/08 00:18:21;;;;;;;0.20;0.20;;;;;;;4.65;76.59;101635.56;5069655;28;20459;-89
2023/12/08 00:20:47;;;;;;;0.20;0.20;;;;;;;4.67;76.42;101647.50;5069233;28;20048;-89
2023/12/08 00:23:12;;;;;;;0.20;0.20;;;;;;;4.75;76.76;101655.13;5070666;28;20075;-88
2023/12/08 00:25:38;;;;;;;0.20;0.20;;;;;;;4.75;76.27;101643.16;5073090;28;21058;-88
2023/12/08 00:28:04;;;;;;;0.20;0.20;;;;;;;4.73;76.70;101651.75;5073160;28;20040;-87
2023/12/08 00:30:29;;;;;;;0.20;0.20;;;;;;;4.81;76.40;101647.38;5073121;28;20029;-88
2023/12/08 00:32:55;;;;;;;0.20;0.20;;;;;;;4.66;77.39;101627.88;5073060;28;20044;-87
2023/12/08 00:35:22;;;;;;;0.20;0.20;;;;;;;4.88;76.83;101649.88;5089600;28;20383;-89
2023/12/08 00:37:47;;;;;;;0.17;0.17;;;;;;;4.96;76.70;101657.50;5072934;28;20066;-88
2023/12/08 00:40:14;;;;;;;0.20;0.20;;;;;;;5.00;75.96;101654.03;5072972;28;20052;-90
2023/12/08 00:42:40;;;;;;;0.20;0.20;;;;;;;4.91;76.49;101649.00;5056255;28;20086;-90
2023/12/08 00:45:06;;;;;;;0.20;0.20;;;;;;;4.86;76.41;101631.09;5072716;28;20425;-89
2023/12/08 00:47:31;;;;;;;0.20;0.20;;;;;;;4.97;75.87;101651.50;5072603;28;20066;-89
2023/12/08 00:49:57;;;;;;;0.20;0.20;;;;;;;5.06;75.45;101650.56;5038984;28;20414;-89
2023/12/08 00:52:23;;;;;;;0.20;0.20;;;;;;;5.16;75.88;101654.75;5072617;28;20394;-89
2023/12/08 00:54:48;;;;;;;0.17;0.17;;;;;;;5.10;74.65;101644.53;5072290;28;20490;-88
2023/12/08 00:57:14;;;;;;;0.20;0.20;;;;;;;5.12;75.84;101653.09;5072702;28;20035;-90
2023/12/08 00:59:40;;;;;;;0.20;0.20;;;;;;;5.08;75.58;101651.41;5072672;28;20029;-90
2023/12/08 01:02:06;;;;;;;0.20;0.20;;;;;;;5.08;76.01;101646.28;5072165;28;20029;-90
2023/12/08 01:04:31;;;;;;;0.20;0.20;;;;;;;5.19;75.76;101650.41;5072131;28;20024;-88
2023/12/08 01:06:57;;;;;;;0.20;0.20;;;;;;;4.97;76.23;101642.97;5072383;28;20024;-87
2023/12/08 01:09:22;;;;;;;0.20;0.20;;;;;;;5.05;75.61;101651.44;5055788;28;20035;-90
2023/12/08 01:11:48;;;;;;;0.20;0.20;;;;;;;4.85;75.98;101626.00;5055612;28;20398;-87
2023/12/08 01:14:13;;;;;;;0.20;0.20;;;;;;;4.92;75.68;101637.00;5072294;28;20078;-87
2023/12/08 01:16:42;;;;;;;0.20;0.20;;;;;;;4.93;75.37;101641.31;5071783;28;20078;-89
2023/12/08 01:19:12;;;;;;;0.20;0.20;;;;;;;4.85;75.85;101629.41;5071758;28;20020;-88
2023/12/08 01:21:38;;;;;;;0.20;0.20;;;;;;;4.92;75.36;101629.31;5055952;28;20051;-91
2023/12/08 01:24:04;;;;;;;0.20;0.20;;;;;;;4.82;75.21;101626.88;5072356;28;20478;-90
2023/12/08 01:26:30;;;;;;;0.20;0.20;;;;;;;4.74;76.04;101636.34;5055415;28;20025;-91
2023/12/08 01:28:55;;;;;;;0.20;0.20;;;;;;;4.81;76.17;101637.97;5055375;28;20033;-88
2023/12/08 01:31:21;;;;;;;0.20;0.20;;;;;;;4.81;75.49;101634.56;5071789;28;20033;-88
2023/12/08 01:33:47;;;;;;;0.20;0.20;;;;;;;4.83;76.02;101631.13;5054782;28;20082;-89
2023/12/08 01:36:13;;;;;;;0.20;0.20;;;;;;;4.84;76.27;101632.84;5071820;28;20062;-87
2023/12/08 01:38:38;;;;;;;0.20;0.20;;;;;;;4.93;76.08;101626.78;5071775;28;20059;-87
2023/12/08 01:41:04;;;;;;;0.20;0.20;;;;;;;4.85;76.67;101619.16;5071813;28;20021;-89
2023/12/08 01:43:29;;;;;;;0.20;0.20;;;;;;;4.94;76.80;101631.03;5088320;28;20039;-88
2023/12/08 01:45:56;;;;;;;0.20;0.20;;;;;;;5.11;75.58;101625.72;5054932;28;20031;-89
2023/12/08 01:48:22;;;;;;;0.20;0.20;;;;;;;5.13;76.01;101629.13;5088223;28;20029;-88
2023/12/08 01:50:47;;;;;;;0.20;0.20;;;;;;;5.06;76.84;101624.94;5071509;28;20059;-88
2023/12/08 01:53:13;;;;;;;0.20;0.20;;;;;;;5.03;76.77;101628.38;5071508;28;20033;-89
2023/12/08 01:55:38;;;;;;;0.20;0.20;;;;;;;4.86;75.50;101605.47;5054570;28;20020;-89
2023/12/08 01:58:04;;;;;;;0.20;0.20;;;;;;;4.93;76.11;101621.66;5071069;28;20032;-89
2023/12/08 02:00:29;;;;;;;0.20;0.20;;;;;;;4.96;75.83;101620.75;5054777;28;20053;-87
2023/12/08 02:02:56;;;;;;;0.20;0.20;;;;;;;4.89;75.83;101613.09;5070988;28;20029;-88
2023/12/08 02:05:21;;;;;;;0.20;0.20;;;;;;;4.88;76.22;101616.53;5071006;28;20493;-87
2023/12/08 02:07:47;;;;;;;0.20;0.20;;;;;;;4.90;76.42;101617.38;5071223;28;20069;-87
2023/12/08 02:10:13;;;;;;;0.20;0.20;;;;;;;4.96;75.79;101608.78;5054554;28;20486;-90
2023/12/08 02:12:38;;;;;;;0.20;0.20;;;;;;;4.84;75.85;101594.38;5070699;28;20494;-89
2023/12/08 02:15:04;;;;;;;0.20;0.20;;;;;;;4.86;75.35;101591.78;5054165;28;20115;-87
2023/12/08 02:17:37;;;;;;;0.20;0.20;;;;;;;4.91;75.98;101602.84;5087478;28;20153;-88
2023/12/08 02:20:06;;;;;;;0.20;0.20;;;;;;;4.94;76.16;101601.97;5071189;28;20028;-89
2023/12/08 02:22:33;;;;;;;0.20;0.20;;;;;;;4.82;76.06;101598.66;5054274;28;20028;-88
2023/12/08 02:24:58;;;;;;;0.20;0.20;;;;;;;4.84;76.51;101604.63;5070754;28;20039;-89
2023/12/08 02:27:24;;;;;;;0.20;0.20;;;;;;;4.85;76.48;101614.00;5087637;28;20025;-90
2023/12/08 02:29:49;;;;;;;0.20;0.20;;;;;;;4.93;75.52;101615.66;5053946;28;20029;-86
2023/12/08 02:32:18;;;;;;;0.20;0.20;;;;;;;4.93;75.63;101615.66;5054066;28;20405;-88
2023/12/08 02:34:44;;;;;;;0.20;0.20;;;;;;;4.96;75.73;101605.38;5071780;28;20498;-88
2023/12/08 02:37:10;;;;;;;0.20;0.20;;;;;;;4.76;75.18;101603.00;5053919;28;20032;-88
2023/12/08 02:39:35;;;;;;;0.20;0.20;;;;;;;4.59;76.18;101587.75;5070444;28;20445;-88
2023/12/08 02:42:01;;;;;;;0.20;0.20;;;;;;;4.71;76.14;101600.47;5053890;28;20039;-88
2023/12/08 02:44:27;;;;;;;0.20;0.20;;;;;;;4.52;76.23;101611.72;5070201;28;20032;-91
2023/12/08 02:46:52;;;;;;;0.20;0.20;;;;;;;4.50;76.61;101595.53;5071153;28;20024;-88
2023/12/08 02:49:18;;;;;;;0.20;0.20;;;;;;;4.44;76.95;101610.97;5070356;28;20062;-89
2023/12/08 02:51:43;;;;;;;0.20;0.20;;;;;;;4.42;76.89;101597.28;5053569;28;20445;-90
2023/12/08 02:54:09;;;;;;;0.20;0.20;;;;;;;4.29;77.42;101579.47;5070251;28;20448;-88
2023/12/08 02:56:34;;;;;;;0.20;0.20;;;;;;;4.37;77.62;101610.16;5070345;28;20047;-90
2023/12/08 02:59:00;;;;;;;0.20;0.20;;;;;;;4.47;77.30;101610.94;5070021;28;20478;-87
2023/12/08 03:01:25;;;;;;;0.20;0.20;;;;;;;4.40;77.27;101583.66;5053586;28;20024;-88
2023/12/08 03:03:51;;;;;;;0.20;0.20;;;;;;;4.55;76.56;101609.16;5071376;28;20021;-88
2023/12/08 03:06:16;;;;;;;0.20;0.20;;;;;;;4.66;76.84;101607.38;5070064;28;20035;-88
2023/12/08 03:08:42;;;;;;;0.20;0.20;;;;;;;4.62;76.01;101610.78;5069820;28;20391;-89
2023/12/08 03:11:08;;;;;;;0.20;0.20;;;;;;;4.61;76.18;101597.13;5070933;28;20406;-90
2023/12/08 03:13:33;;;;;;;0.20;0.20;;;;;;;4.67;76.33;101598.81;5069706;28;20025;-87
2023/12/08 03:15:59;;;;;;;0.20;0.20;;;;;;;4.75;76.42;101609.00;5070039;28;20041;-89
2023/12/08 03:18:24;;;;;;;0.20;0.20;;;;;;;4.69;76.33;101606.47;5070087;28;20036;-88
2023/12/08 03:20:50;;;;;;;0.20;0.20;;;;;;;4.80;75.96;101607.22;5070095;28;20082;-89
2023/12/08 03:23:15;;;;;;;0.20;0.20;;;;;;;4.75;75.58;101607.28;5053204;28;20025;-89
2023/12/08 03:25:41;;;;;;;0.20;0.20;;;;;;;4.71;75.64;101608.16;5053231;28;20028;-88
2023/12/08 03:28:06;;;;;;;0.20;0.20;;;;;;;4.76;75.83;101608.97;5069656;28;20035;-88
2023/12/08 03:30:32;;;;;;;0.20;0.20;;;;;;;4.74;75.71;101600.47;5036523;28;20123;-88
2023/12/08 03:32:57;;;;;;;0.10;0.10;;;;;;;4.79;75.64;101602.97;5069919;28;20116;-88
2023/12/08 03:35:23;;;;;;;0.20;0.20;;;;;;;4.81;75.08;101616.59;5086137;28;20059;-87
2023/12/08 03:37:48;;;;;;;0.20;0.20;;;;;;;4.85;75.16;101618.31;5069562;28;20111;-90
2023/12/08 03:40:14;;;;;;;0.20;0.20;;;;;;;4.90;75.51;101619.09;5069767;28;20067;-88
2023/12/08 03:42:40;;;;;;;0.20;0.20;;;;;;;4.87;75.78;101617.41;5052616;28;20034;-88
2023/12/08 03:45:05;;;;;;;0.20;0.20;;;;;;;4.94;75.35;101627.63;5086948;28;20029;-88
2023/12/08 03:47:31;;;;;;;0.20;0.20;;;;;;;4.97;75.57;101622.44;5069654;28;20034;-91
2023/12/08 03:49:56;;;;;;;0.20;0.20;;;;;;;5.00;75.51;101625.81;5053048;28;20033;-88
2023/12/08 03:52:22;;;;;;;0.20;0.20;;;;;;;4.95;75.86;101622.47;5053175;28;20068;-88
2023/12/08 03:54:47;;;;;;;0.20;0.20;;;;;;;4.92;76.03;101619.94;5069734;28;20036;-89
2023/12/08 03:57:13;;;;;;;0.20;0.20;;;;;;;4.93;76.10;101610.53;5052434;28;20025;-90
2023/12/08 03:59:41;;;;;;;0.10;0.10;;;;;;;4.99;75.71;101623.28;5073168;28;20055;-88
2023/12/08 04:02:07;;;;;;;0.20;0.20;;;;;;;5.04;76.12;101629.22;5073169;28;20029;-86
2023/12/08 04:04:33;;;;;;;0.10;0.10;;;;;;;4.98;76.96;101621.59;5056158;28;20024;-84
2023/12/08 04:06:58;;;;;;;0.20;0.20;;;;;;;4.96;77.18;101625.88;5072794;28;20032;-85
2023/12/08 04:09:24;;;;;;;0.20;0.20;;;;;;;4.87;76.60;101611.44;5072786;28;20033;-85
2023/12/08 04:11:50;;;;;;;0.10;0.10;;;;;;;4.89;77.17;101620.81;5089022;28;20025;-85
2023/12/08 04:14:15;;;;;;;0.20;0.20;;;;;;;4.88;76.48;101610.56;5072771;28;20029;-85
2023/12/08 04:16:41;;;;;;;0.20;0.20;;;;;;;4.93;75.90;101615.66;5089402;28;20060;-89
2023/12/08 04:19:06;;;;;;;0.10;0.10;;;;;;;4.98;75.90;101632.69;5075401;28;20035;-92
2023/12/08 04:21:32;;;;;;;0.20;0.20;;;;;;;4.89;75.81;101615.69;5046442;28;20406;-91
2023/12/08 04:23:57;;;;;;;0.20;0.20;;;;;;;4.99;75.72;101628.41;5079085;28;20024;-91
2023/12/08 04:26:25;;;;;;;0.10;0.10;;;;;;;4.97;75.86;101633.56;5065249;28;20086;-91
2023/12/08 04:28:53;;;;;;;0.10;0.10;;;;;;;4.90;76.18;101627.63;5078969;28;20029;-91
2023/12/08 04:31:20;;;;;;;0.20;0.20;;;;;;;4.99;75.70;101633.53;5060783;28;20115;-91
2023/12/08 04:33:46;;;;;;;0.20;0.20;;;;;;;4.96;75.70;101642.13;5076249;28;20029;-92
2023/12/08 04:36:11;;;;;;;0.20;0.20;;;;;;;4.98;75.76;101640.38;5061478;28;20021;-91
2023/12/08 04:38:37;;;;;;;0.20;0.20;;;;;;;4.97;75.48;101637.84;5076835;28;20387;-89
2023/12/08 04:41:02;;;;;;;0.20;0.20;;;;;;;5.05;75.56;101641.19;5089868;28;20048;-89
2023/12/08 04:43:28;;;;;;;0.10;0.10;;;;;;;4.87;75.33;101622.53;5056631;28;20035;-91
2023/12/08 04:45:54;;;;;;;0.20;0.20;;;;;;;4.99;75.24;101636.09;5074214;28;20517;-89
2023/12/08 04:48:19;;;;;;;0.20;0.20;;;;;;;5.06;75.29;101653.13;5056532;28;20114;-91
2023/12/08 04:50:45;;;;;;;0.20;0.20;;;;;;;5.04;74.99;101648.03;5073276;28;20082;-88
2023/12/08 04:53:11;;;;;;;0.20;0.20;;;;;;;5.04;74.50;101644.63;5072970;28;20024;-88
2023/12/08 04:55:37;;;;;;;0.20;0.20;;;;;;;5.01;74.87;101647.19;5056064;28;20032;-90
2023/12/08 04:58:02;;;;;;;0.20;0.20;;;;;;;5.05;74.99;101651.44;5055984;28;20414;-89
2023/12/08 05:00:28;;;;;;;0.10;0.10;;;;;;;5.07;74.76;101657.41;5072917;28;20048;-89
2023/12/08 05:02:57;;;;;;;0.20;0.20;;;;;;;5.05;75.26;101656.56;5056044;28;20032;-92
2023/12/08 05:05:23;;;;;;;0.20;0.20;;;;;;;5.07;74.94;101650.56;5072906;28;20025;-90
2023/12/08 05:07:49;;;;;;;0.20;0.20;;;;;;;5.04;75.02;101657.44;5072977;28;20033;-87
2023/12/08 05:10:14;;;;;;;0.20;0.20;;;;;;;5.02;75.09;101656.63;5033750;28;20021;-89
2023/12/08 05:12:40;;;;;;;0.20;0.20;;;;;;;5.10;75.13;101657.34;5069621;28;20031;-84
2023/12/08 05:15:06;;;;;;;0.20;0.20;;;;;;;5.08;75.08;101659.94;5072403;28;20043;-88
2023/12/08 05:17:31;;;;;;;0.20;0.20;;;;;;;5.09;74.94;101664.22;5062771;28;20155;-91
2023/12/08 05:19:57;;;;;;;0.20;0.20;;;;;;;5.09;75.32;101666.78;5056148;28;20024;-84
2023/12/08 05:22:22;;;;;;;0.20;0.20;;;;;;;5.04;75.12;101650.59;5070874;28;20082;-81
2023/12/08 05:24:48;;;;;;;0.20;0.20;;;;;;;4.99;74.87;101647.22;5070260;28;20028;-84
2023/12/08 05:27:13;;;;;;;0.20;0.20;;;;;;;5.07;74.85;101659.97;5072329;28;20036;-85
2023/12/08 05:29:39;;;;;;;0.20;0.20;;;;;;;5.04;74.96;101655.72;5072075;28;20021;-83
2023/12/08 05:32:05;;;;;;;0.20;0.20;;;;;;;5.09;74.82;101658.22;5070705;28;20029;-81
2023/12/08 05:34:31;;;;;;;0.20;0.20;;;;;;;5.01;74.93;101634.38;5068284;28;20025;-92
2023/12/08 05:36:56;;;;;;;0.20;0.20;;;;;;;5.15;74.70;101658.19;5051482;28;20552;-83
2023/12/08 05:39:22;;;;;;;0.20;0.20;;;;;;;5.07;74.31;101649.72;5054717;28;20024;-86
2023/12/08 05:41:47;;;;;;;0.20;0.20;;;;;;;5.13;74.67;101657.34;5061490;28;20021;-92
2023/12/08 05:44:15;;;;;;;0.20;0.20;;;;;;;5.11;74.05;101651.34;5055478;28;21302;-84
2023/12/08 05:46:40;;;;;;;0.20;0.20;;;;;;;5.17;74.32;101659.00;5055924;28;20027;-90
2023/12/08 05:49:07;;;;;;;0.20;0.20;;;;;;;5.17;74.31;101659.00;5071229;28;20470;-91
2023/12/08 05:51:32;;;;;;;0.20;0.20;;;;;;;5.21;74.15;101659.81;5050001;28;20024;-86
2023/12/08 05:53:58;;;;;;;0.20;0.20;;;;;;;5.19;74.06;101654.69;5051839;28;20074;-90
2023/12/08 05:56:24;;;;;;;0.20;0.20;;;;;;;5.13;74.47;101665.03;5034655;28;20056;-92
2023/12/08 05:58:49;;;;;;;0.20;0.20;;;;;;;5.13;74.28;101660.75;5024062;28;20410;-84
2023/12/08 06:01:15;;;;;;;0.20;0.20;;;;;;;5.08;74.54;101656.53;5029619;28;20036;-86
2023/12/08 06:03:40;;;;;;;0.20;0.20;;;;;;;5.21;73.81;101665.81;5060720;28;20029;-87
2023/12/08 06:06:06;;;;;;;0.20;0.20;;;;;;;5.15;73.75;101659.03;5043316;28;20495;-85
2023/12/08 06:08:32;;;;;;;0.20;0.20;;;;;;;5.24;73.77;101663.22;5057702;28;20540;-86
2023/12/08 06:10:57;;;;;;;0.20;0.20;;;;;;;5.22;73.91;101644.44;5060312;28;20032;-87
2023/12/08 06:13:23;;;;;;;0.20;0.20;;;;;;;5.27;73.64;101649.50;5054775;28;20690;-90
2023/12/08 06:15:48;;;;;;;0.20;0.20;;;;;;;5.33;72.73;101660.56;5053742;28;20053;-86
2023/12/08 06:18:14;;;;;;;0.20;0.20;;;;;;;5.31;73.02;101654.59;5068437;28;20028;-87
2023/12/08 06:20:39;;;;;;;0.20;0.20;;;;;;;5.19;73.84;101657.28;5069217;28;20106;-85
2023/12/08 06:23:05;;;;;;;0.20;0.20;;;;;;;5.29;73.27;101651.19;5070233;28;20036;-81
2023/12/08 06:25:30;;;;;;;0.20;0.20;;;;;;;5.32;72.82;101665.72;5065044;28;20485;-87
2023/12/08 06:27:56;;;;;;;0.20;0.20;;;;;;;5.33;72.08;101658.00;5070312;28;20482;-87
2023/12/08 06:30:22;;;;;;;0.20;0.20;;;;;;;5.25;71.90;101634.13;5066617;28;20445;-81
2023/12/08 06:32:47;;;;;;;0.20;0.20;;;;;;;5.30;71.49;101637.47;5070236;28;20500;-81
2023/12/08 06:35:13;;;;;;;0.20;0.20;;;;;;;5.30;71.84;101640.03;5062055;28;20033;-86
2023/12/08 06:37:38;;;;;;;0.20;0.20;;;;;;;5.36;71.60;101646.84;5052809;28;20029;-88
2023/12/08 06:40:05;;;;;;;0.20;0.20;;;;;;;5.39;72.08;101652.78;5053431;28;20395;-89
2023/12/08 06:42:31;;;;;;;0.20;0.20;;;;;;;5.31;72.17;101659.72;5049882;28;20506;-93
2023/12/08 06:44:56;;;;;;;0.20;0.20;;;;;;;5.30;71.98;101642.59;5044119;28;20056;-86
2023/12/08 06:47:22;;;;;;;0.20;0.20;;;;;;;5.32;71.63;101651.16;5069950;28;20027;-91
2023/12/08 06:49:47;;;;;;;0.10;0.10;;;;;;;5.30;71.09;101652.03;5071229;28;20020;-88
2023/12/08 06:52:13;;;;;;;0.20;0.20;;;;;;;5.19;71.76;101650.41;5049731;28;20036;-84
2023/12/08 06:54:38;;;;;;;0.20;0.20;;;;;;;5.13;72.01;101634.28;5062291;28;20048;-84
2023/12/08 06:57:04;;;;;;;0.20;0.20;;;;;;;5.23;72.07;101653.81;5056236;28;20037;-85
2023/12/08 06:59:30;;;;;;;0.20;0.20;;;;;;;5.08;73.49;101649.69;5053893;28;20090;-92
2023/12/08 07:01:55;;;;;;;0.20;0.20;;;;;;;5.16;72.02;101654.75;5053785;28;20044;-83
2023/12/08 07:04:21;;;;;;;0.20;0.20;;;;;;;5.24;72.28;101668.34;5073386;28;20499;-87
2023/12/08 07:06:46;;;;;;;0.20;0.20;;;;;;;5.21;72.89;101652.13;5058671;28;20036;-88
2023/12/08 07:09:12;;;;;;;0.20;0.20;;;;;;;5.31;71.47;101653.72;5067299;28;20107;-90
2023/12/08 07:11:38;;;;;;;0.20;0.20;;;;;;;5.23;70.06;101637.59;5064510;28;20112;-84
2023/12/08 07:14:03;;;;;;;0.20;0.20;;;;;;;5.19;70.75;101647.84;5057419;28;20028;-90
2023/12/08 07:16:29;;;;;;;0.20;0.20;;;;;;;5.27;71.36;101658.03;5067637;28;20060;-92
2023/12/08 07:18:54;;;;;;;0.17;0.17;;;;;;;5.30;72.31;101663.13;5048984;28;20040;-86
2023/12/08 07:21:20;;;;;;;0.20;0.20;;;;;;;5.22;71.88;101667.53;5031678;28;20036;-85
2023/12/08 07:23:45;;;;;;;0.20;0.20;;;;;;;5.32;71.24;101676.81;5049759;28;20227;-88
2023/12/08 07:26:11;;;;;;;0.20;0.20;;;;;;;5.29;71.36;101655.47;5048233;28;20033;-87
2023/12/08 07:28:37;;;;;;;0.20;0.20;;;;;;;5.12;73.00;101632.56;5050078;28;20029;-86
2023/12/08 07:31:03;;;;;;;0.20;0.20;;;;;;;5.41;71.43;101669.03;5058449;28;20040;-81
2023/12/08 07:33:28;;;;;;;0.20;0.20;;;;;;;5.42;71.30;101663.03;5063934;28;20043;-87
2023/12/08 07:35:54;;;;;;;0.20;0.20;;;;;;;5.37;71.05;101641.69;5053762;28;20510;-89
2023/12/08 07:38:20;;;;;;;0.20;0.20;;;;;;;5.55;70.58;101668.00;5064786;28;20505;-87
2023/12/08 07:40:45;;;;;;;0.20;0.20;;;;;;;5.55;71.65;101674.00;5053639;28;20036;-88
2023/12/08 07:43:11;;;;;;;0.20;0.20;;;;;;;5.67;70.26;101678.13;5048744;28;20033;-87
2023/12/08 07:45:37;;;;;;;0.20;0.20;;;;;;;5.74;70.43;101684.91;5035076;28;21074;-86
2023/12/08 07:48:03;;;;;;;0.20;0.20;;;;;;;5.85;71.00;101672.78;5067144;28;20040;-85
2023/12/08 07:50:29;;;;;;;0.20;0.20;;;;;;;5.85;69.50;101661.66;5042325;28;20057;-88
2023/12/08 07:52:55;;;;;;;0.20;0.20;;;;;;;5.71;70.26;101651.56;5074197;28;20033;-83
2023/12/08 07:55:20;;;;;;;0.20;0.20;;;;;;;5.91;68.94;101675.31;5072121;28;20048;-80
2023/12/08 07:57:47;;;;;;;0.20;0.20;;;;;;;5.81;69.38;101666.00;5059862;28;20512;-89
2023/12/08 08:00:12;;;;;;;0.20;0.20;;;;;;;5.99;69.94;101673.47;5072195;28;20497;-85
2023/12/08 08:02:38;;;;;;;0.10;0.10;;;;;;;5.93;69.66;101658.16;5067662;28;20036;-83
2023/12/08 08:05:04;;;;;;;0.20;0.20;;;;;;;6.02;69.34;101680.31;5053930;28;20033;-85
2023/12/08 08:07:30;;;;;;;0.20;0.20;;;;;;;6.02;69.73;101675.16;5064773;28;20032;-84
2023/12/08 08:09:56;;;;;;;0.20;0.20;;;;;;;6.05;70.11;101685.38;5060133;28;20042;-92
2023/12/08 08:12:23;;;;;;;0.20;0.20;;;;;;;6.01;70.24;101671.75;5076776;28;20047;-92
2023/12/08 08:14:49;;;;;;;0.20;0.20;;;;;;;6.13;69.10;101683.56;5065200;28;20013;-85
2023/12/08 08:17:14;;;;;;;0.20;0.20;;;;;;;6.09;67.96;101686.19;5043617;28;20529;-85
2023/12/08 08:19:41;;;;;;;0.20;0.20;;;;;;;6.19;68.34;101678.31;5054632;28;20024;-81
2023/12/08 08:22:07;;;;;;;0.20;0.20;;;;;;;6.26;68.77;101673.97;5072675;28;20123;-82
2023/12/08 08:24:32;;;;;;;0.20;0.20;;;;;;;6.28;67.52;101685.91;5071215;28;20135;-85
2023/12/08 08:26:58;;;;;;;0.20;0.20;;;;;;;6.27;68.17;101688.50;5061799;28;20036;-85
2023/12/08 08:29:23;;;;;;;0.20;0.20;;;;;;;6.24;67.57;101668.84;5052880;28;20029;-83
2023/12/08 08:31:49;;;;;;;0.20;0.20;;;;;;;6.35;67.77;101673.84;5051229;28;20033;-84
2023/12/08 08:34:14;;;;;;;0.20;0.20;;;;;;;6.45;67.06;101684.81;5060324;28;20085;-84
2023/12/08 08:36:40;;;;;;;0.20;0.20;;;;;;;6.45;67.12;101671.97;5041450;28;20029;-82
2023/12/08 08:39:06;;;;;;;0.20;0.20;;;;;;;6.39;68.45;101659.19;5061677;28;20033;-85
2023/12/08 08:41:31;;;;;;;0.20;0.20;;;;;;;6.51;68.95;101664.19;5072404;28;20500;-86
2023/12/08 08:43:57;;;;;;;0.20;0.20;;;;;;;6.58;68.29;101669.19;5041846;28;20040;-83
2023/12/08 08:46:22;;;;;;;0.20;0.20;;;;;;;6.83;70.49;101669.63;5057522;28;20028;-90
2023/12/08 08:48:48;;;;;;;0.20;0.20;;;;;;;6.86;69.01;101676.44;5071052;28;20071;-90
2023/12/08 08:51:16;;;;;;;0.20;0.20;;;;;;;7.01;68.74;101665.91;5072720;28;20028;-81
2023/12/08 08:53:41;;;;;;;0.20;0.20;;;;;;;7.03;65.36;101668.44;5070356;28;20466;-83
2023/12/08 08:56:07;;;;;;;0.20;0.20;;;;;;;7.10;65.04;101660.59;5060634;28;20119;-82
2023/12/08 08:58:34;;;;;;;0.20;0.20;;;;;;;7.02;64.67;101661.63;5055855;28;20732;-85
2023/12/08 09:01:00;;;;;;;0.20;0.20;;;;;;;7.06;65.37;101669.22;5055023;28;20112;-86
2023/12/08 09:03:25;;;;;;;0.20;0.20;;;;;;;7.03;65.25;101661.59;5034412;28;20147;-87
2023/12/08 09:05:51;;;;;;;0.20;0.20;;;;;;;7.05;64.69;101657.25;5051558;28;20372;-86
2023/12/08 09:08:16;;;;;;;0.20;0.20;;;;;;;7.03;65.63;101661.59;5047649;28;20054;-84
2023/12/08 09:10:45;;;;;;;0.20;0.20;;;;;;;7.22;64.41;101654.38;5069186;28;20024;-90
2023/12/08 09:13:11;;;;;;;0.20;0.20;;;;;;;7.15;63.75;101651.06;5048324;28;20483;-87
2023/12/08 09:15:36;;;;;;;0.20;0.20;;;;;;;7.10;62.28;101652.88;5064143;28;20044;-83
2023/12/08 09:18:03;;;;;;;0.20;0.20;;;;;;;7.01;63.04;101635.03;5057255;28;20098;-84
2023/12/08 09:20:28;;;;;;;0.20;0.20;;;;;;;7.07;62.82;101634.91;5048474;28;20486;-86
2023/12/08 09:22:54;;;;;;;0.20;0.20;;;;;;;7.14;61.76;101651.94;5039803;28;20037;-82
2023/12/08 09:25:19;;;;;;;0.20;0.20;;;;;;;7.13;64.92;101637.38;5080585;28;20036;-84
2023/12/08 09:27:45;;;;;;;0.20;0.20;;;;;;;7.01;62.36;101635.03;5051531;28;20034;-88
2023/12/08 09:30:11;;;;;;;0.20;0.20;;;;;;;7.01;61.36;101647.91;5063255;28;20051;-83
2023/12/08 09:32:37;;;;;;;0.20;0.20;;;;;;;7.15;67.27;101635.63;5052962;28;20037;-85
2023/12/08 09:35:03;;;;;;;0.20;0.20;;;;;;;7.31;62.49;101640.50;5043833;28;20061;-87
2023/12/08 09:37:28;;;;;;;0.20;0.20;;;;;;;7.16;64.02;101641.59;5062911;28;20037;-87
2023/12/08 09:39:54;;;;;;;0.20;0.20;;;;;;;7.31;63.10;101637.91;5056581;28;20070;-82
2023/12/08 09:42:38;;;;;;;0.10;0.10;;;;;;;7.10;63.46;101611.72;5067212;28;20021;-84
2023/12/08 09:45:05;;;;;;;0.20;0.20;;;;;;;7.23;63.87;101632.91;5062971;28;20497;-85
2023/12/08 09:47:31;;;;;;;0.20;0.20;;;;;;;7.29;64.01;101619.09;5049433;28;20063;-87
2023/12/08 09:49:57;;;;;;;0.20;0.20;;;;;;;7.37;62.67;101622.34;5036524;28;20072;-84
2023/12/08 09:52:22;;;;;;;0.20;0.20;;;;;;;7.33;62.92;101624.13;5049659;28;20518;-86
2023/12/08 09:54:48;;;;;;;0.20;0.20;;;;;;;7.34;63.88;101612.94;5048763;28;20124;-86
2023/12/08 09:57:13;;;;;;;0.20;0.20;;;;;;;7.47;63.83;101624.72;5040794;28;20039;-81
2023/12/08 09:59:39;;;;;;;0.13;0.13;;;;;;;7.53;63.64;101618.59;5059304;28;20357;-89
2023/12/08 10:02:07;;;;;;;0.20;0.20;;;;;;;7.58;62.75;101616.78;5051567;28;20103;-87
2023/12/08 10:04:34;;;;;;;0.20;0.20;;;;;;;7.62;61.44;101615.81;5061276;28;20033;-86
2023/12/08 10:07:00;;;;;;;0.20;0.20;;;;;;;7.46;61.52;101602.41;5048514;28;20024;-85
2023/12/08 10:09:27;;;;;;;0.10;0.10;;;;;;;7.56;61.56;101615.09;5061164;28;20152;-81
2023/12/08 10:11:52;;;;;;;0.10;0.10;;;;;;;7.46;61.55;101596.41;5048208;28;20029;-83
2023/12/08 10:14:18;;;;;;;0.10;0.10;;;;;;;7.58;61.82;101611.63;5052786;28;20029;-88
2023/12/08 10:16:46;;;;;;;0.10;0.10;;;;;;;7.87;62.58;101617.88;5065712;28;20062;-86
2023/12/08 10:19:11;;;;;;;0.20;0.20;;;;;;;7.78;60.31;101611.19;5034969;28;20426;-83
2023/12/08 10:21:37;;;;;;;0.20;0.20;;;;;;;8.02;59.21;101617.53;5057873;28;20032;-83
2023/12/08 10:24:03;;;;;;;0.20;0.20;;;;;;;8.11;58.64;101609.59;5072680;28;20041;-83
2023/12/08 10:26:32;;;;;;;0.10;0.10;;;;;;;7.99;57.59;101610.72;5065337;28;20029;-91
2023/12/08 10:28:58;;;;;;;0.10;0.10;;;;;;;8.09;56.59;101613.94;5052767;28;20086;-85
2023/12/08 10:31:24;;;;;;;0.20;0.20;;;;;;;8.03;57.03;101614.06;5050734;28;20029;-84
2023/12/08 10:33:49;;;;;;;0.20;0.20;;;;;;;8.07;58.04;101597.66;5048527;28;20059;-85
2023/12/08 10:36:15;;;;;;;0.20;0.20;;;;;;;7.79;56.52;101599.16;5062013;28;20032;-85
2023/12/08 10:38:41;;;;;;;0.20;0.20;;;;;;;7.87;58.03;101602.44;5053877;28;20039;-91
2023/12/08 10:41:08;;;;;;;0.20;0.20;;;;;;;7.96;57.52;101597.03;5038838;28;20142;-87
2023/12/08 10:43:36;;;;;;;0.20;0.20;;;;;;;8.03;57.21;101593.44;5043691;28;20036;-87
2023/12/08 10:46:02;;;;;;;0.20;0.20;;;;;;;7.98;56.08;101597.88;5061658;28;20140;-84
2023/12/08 10:48:28;;;;;;;0.20;0.20;;;;;;;7.97;58.23;101593.59;5064919;28;20090;-90
2023/12/08 10:50:53;;;;;;;0.20;0.20;;;;;;;8.01;59.32;101590.06;5042066;28;20458;-88
2023/12/08 10:53:19;;;;;;;0.20;0.20;;;;;;;8.06;56.84;101583.06;5043953;28;20552;-88
2023/12/08 10:56:00;;;;;;;0.20;0.20;;;;;;;7.94;57.73;101588.50;5063653;28;20060;-86
2023/12/08 10:58:26;;;;;;;0.20;0.20;;;;;;;7.96;58.44;101591.88;5033495;28;20126;-83
2023/12/08 11:00:52;;;;;;;0.20;0.20;;;;;;;7.88;57.04;101586.09;5041016;28;20074;-88
2023/12/08 11:03:19;;;;;;;0.20;0.20;;;;;;;7.77;58.82;101594.06;5067866;28;20062;-87
2023/12/08 11:05:47;;;;;;;0.20;0.20;;;;;;;7.86;58.72;101580.09;5071641;28;20035;-85
2023/12/08 11:08:15;;;;;;;0.20;0.20;;;;;;;8.07;57.70;101595.09;5068191;28;20021;-89
2023/12/08 11:10:42;;;;;;;0.20;0.20;;;;;;;8.11;57.91;101585.53;5050593;28;20028;-79
2023/12/08 11:13:29;;;;;;;0.20;0.20;;;;;;;8.15;56.82;101587.16;5048681;28;20048;-81
2023/12/08 11:16:08;;;;;;;0.20;0.20;;;;;;;8.16;57.34;101592.31;5066539;28;20524;-80
2023/12/08 11:18:36;;;;;;;0.20;0.20;;;;;;;8.12;57.66;101597.53;5062644;28;20076;-83
2023/12/08 11:21:11;;;;;;;0.20;0.20;;;;;;;8.16;57.35;101583.69;5049067;28;20551;-88
2023/12/08 11:23:38;;;;;;;0.20;0.20;;;;;;;8.01;58.42;101564.28;5066131;28;20102;-83
2023/12/08 11:26:21;;;;;;;0.20;0.20;;;;;;;7.96;56.50;101572.16;5050135;28;20036;-86
2023/12/08 11:29:02;;;;;;;0.20;0.20;;;;;;;8.12;57.77;101584.66;5051024;28;20594;-87